PRIVATE WETTERSTATION BILLIGHEIM-ALLFELD                       ZURCK
Wetterdaten: Sonntag, 02.04.2017
Datum Zeit Temp. A. Temp. A. min Temp. A. max Feuchte A. Luftdruck Regen Wind Richtung Richtung Sonnenschein ET Solar Taupunkt Windchill Windben Empfang
02.04.2017 00:00 11,9 C 11,9 C 12,0 C 72 % 1012,9 hPa 0,0 l/m 0,0 km/h (0 Bft) W 270 0 min 0,025 mm 0 W/m 7,0 C 11,9 C 4,8 km/h (1 Bft) 98 %
02.04.2017 00:10 11,7 C 11,7 C 11,9 C 73 % 1012,9 hPa 0,0 l/m 1,6 km/h (1 Bft) S-SW 202 0 min 0,000 mm 0 W/m 7,0 C 11,7 C 8,0 km/h (2 Bft) 97 %
02.04.2017 00:20 11,4 C 11,4 C 11,7 C 75 % 1012,9 hPa 0,0 l/m 1,6 km/h (1 Bft) S-SW 202 0 min 0,000 mm 0 W/m 7,1 C 11,4 C 4,8 km/h (1 Bft) 98 %
02.04.2017 00:30 11,2 C 11,2 C 11,4 C 74 % 1013,0 hPa 0,0 l/m 1,6 km/h (1 Bft) W-SW 247 0 min 0,000 mm 0 W/m 6,7 C 11,2 C 6,4 km/h (2 Bft) 97 %
02.04.2017 00:40 11,1 C 11,1 C 11,2 C 76 % 1013,0 hPa 0,0 l/m 0,0 km/h (0 Bft) W-SW 247 0 min 0,000 mm 0 W/m 7,0 C 11,1 C 1,6 km/h (1 Bft) 97 %
02.04.2017 00:50 10,9 C 10,9 C 11,1 C 77 % 1013,1 hPa 0,0 l/m 0,0 km/h (0 Bft) W-SW 247 0 min 0,000 mm 0 W/m 7,0 C 10,9 C 4,8 km/h (1 Bft) 97 %
02.04.2017 01:00 10,7 C 10,7 C 10,9 C 77 % 1013,2 hPa 0,0 l/m 1,6 km/h (1 Bft) W-SW 247 0 min 0,025 mm 0 W/m 6,8 C 10,7 C 4,8 km/h (1 Bft) 98 %
02.04.2017 01:10 10,5 C 10,5 C 10,7 C 77 % 1013,3 hPa 0,0 l/m 3,2 km/h (1 Bft) W-SW 247 0 min 0,000 mm 0 W/m 6,6 C 10,5 C 9,7 km/h (2 Bft) 97 %
02.04.2017 01:20 10,5 C 10,4 C 10,5 C 77 % 1013,3 hPa 0,0 l/m 3,2 km/h (1 Bft) W 270 0 min 0,000 mm 0 W/m 6,6 C 10,5 C 8,0 km/h (2 Bft) 98 %
02.04.2017 01:30 10,5 C 10,4 C 10,5 C 77 % 1013,3 hPa 0,0 l/m 1,6 km/h (1 Bft) W-NW 292 0 min 0,000 mm 0 W/m 6,6 C 10,5 C 6,4 km/h (2 Bft) 97 %
02.04.2017 01:40 10,5 C 10,4 C 10,5 C 77 % 1013,3 hPa 0,0 l/m 0,0 km/h (0 Bft) W-NW 292 0 min 0,000 mm 0 W/m 6,6 C 10,5 C 6,4 km/h (2 Bft) 98 %
02.04.2017 01:50 10,4 C 10,4 C 10,5 C 78 % 1013,4 hPa 0,0 l/m 1,6 km/h (1 Bft) W-SW 247 0 min 0,000 mm 0 W/m 6,7 C 10,4 C 8,0 km/h (2 Bft) 98 %
02.04.2017 02:00 10,3 C 10,3 C 10,4 C 79 % 1013,3 hPa 0,0 l/m 3,2 km/h (1 Bft) W-SW 247 0 min 0,025 mm 0 W/m 6,8 C 10,3 C 6,4 km/h (2 Bft) 98 %
02.04.2017 02:10 10,3 C 10,3 C 10,3 C 81 % 1013,4 hPa 0,0 l/m 3,2 km/h (1 Bft) W-NW 292 0 min 0,000 mm 0 W/m 7,2 C 10,3 C 9,7 km/h (2 Bft) 97 %
02.04.2017 02:20 10,2 C 10,2 C 10,3 C 81 % 1013,6 hPa 0,0 l/m 3,2 km/h (1 Bft) W-SW 247 0 min 0,000 mm 0 W/m 7,1 C 10,2 C 8,0 km/h (2 Bft) 97 %
02.04.2017 02:30 10,1 C 10,1 C 10,2 C 82 % 1013,8 hPa 0,0 l/m 1,6 km/h (1 Bft) W-SW 247 0 min 0,000 mm 0 W/m 7,2 C 10,1 C 8,0 km/h (2 Bft) 98 %
02.04.2017 02:40 9,9 C 9,9 C 10,1 C 82 % 1013,7 hPa 0,0 l/m 3,2 km/h (1 Bft) W-SW 247 0 min 0,000 mm 0 W/m 7,0 C 9,9 C 8,0 km/h (2 Bft) 97 %
02.04.2017 02:50 9,8 C 9,8 C 9,9 C 83 % 1013,6 hPa 0,0 l/m 0,0 km/h (0 Bft) W 270 0 min 0,000 mm 0 W/m 7,1 C 9,8 C 4,8 km/h (1 Bft) 98 %
02.04.2017 03:00 9,6 C 9,6 C 9,8 C 84 % 1013,6 hPa 0,0 l/m 0,0 km/h (0 Bft) N 0 0 min 0,025 mm 0 W/m 7,0 C 9,6 C 0,0 km/h (0 Bft) 98 %
02.04.2017 03:10 9,3 C 9,3 C 9,6 C 85 % 1013,7 hPa 0,0 l/m 0,0 km/h (0 Bft) N 0 0 min 0,000 mm 0 W/m 6,9 C 9,3 C 0,0 km/h (0 Bft) 98 %
02.04.2017 03:20 9,1 C 9,1 C 9,4 C 86 % 1013,8 hPa 0,0 l/m 1,6 km/h (1 Bft) SW 225 0 min 0,000 mm 0 W/m 6,9 C 9,1 C 4,8 km/h (1 Bft) 98 %
02.04.2017 03:30 9,0 C 9,0 C 9,1 C 86 % 1014,0 hPa 0,0 l/m 3,2 km/h (1 Bft) SW 225 0 min 0,000 mm 0 W/m 6,8 C 9,0 C 8,0 km/h (2 Bft) 97 %
02.04.2017 03:40 8,8 C 8,8 C 9,0 C 86 % 1013,8 hPa 0,0 l/m 0,0 km/h (0 Bft) SW 225 0 min 0,000 mm 0 W/m 6,6 C 8,8 C 3,2 km/h (1 Bft) 98 %
02.04.2017 03:50 8,7 C 8,7 C 8,8 C 86 % 1013,9 hPa 0,0 l/m 0,0 km/h (0 Bft) N 0 0 min 0,000 mm 0 W/m 6,5 C 8,7 C 0,0 km/h (0 Bft) 98 %
02.04.2017 04:00 8,6 C 8,6 C 8,7 C 86 % 1013,8 hPa 0,0 l/m 0,0 km/h (0 Bft) N 0 0 min 0,000 mm 0 W/m 6,4 C 8,6 C 0,0 km/h (0 Bft) 97 %
02.04.2017 04:10 8,4 C 8,4 C 8,6 C 86 % 1013,9 hPa 0,0 l/m 0,0 km/h (0 Bft) N 0 0 min 0,000 mm 0 W/m 6,2 C 8,4 C 0,0 km/h (0 Bft) 97 %
02.04.2017 04:20 8,3 C 8,3 C 8,4 C 87 % 1013,9 hPa 0,0 l/m 0,0 km/h (0 Bft) N 0 0 min 0,000 mm 0 W/m 6,3 C 8,3 C 0,0 km/h (0 Bft) 97 %
02.04.2017 04:30 8,3 C 8,3 C 8,3 C 87 % 1014,0 hPa 0,0 l/m 0,0 km/h (0 Bft) SW 225 0 min 0,000 mm 0 W/m 6,3 C 8,3 C 1,6 km/h (1 Bft) 98 %
02.04.2017 04:40 8,3 C 8,3 C 8,3 C 88 % 1013,9 hPa 0,0 l/m 1,6 km/h (1 Bft) SW 225 0 min 0,000 mm 0 W/m 6,4 C 8,3 C 9,7 km/h (2 Bft) 96 %
02.04.2017 04:50 8,3 C 8,3 C 8,3 C 88 % 1014,2 hPa 0,0 l/m 1,6 km/h (1 Bft) SW 225 0 min 0,000 mm 0 W/m 6,4 C 8,3 C 3,2 km/h (1 Bft) 98 %
02.04.2017 05:00 8,3 C 8,3 C 8,3 C 88 % 1014,1 hPa 0,0 l/m 0,0 km/h (0 Bft) SW 225 0 min 0,000 mm 0 W/m 6,4 C 8,3 C 1,6 km/h (1 Bft) 98 %
02.04.2017 05:10 8,3 C 8,3 C 8,3 C 88 % 1014,1 hPa 0,0 l/m 0,0 km/h (0 Bft) N 0 0 min 0,000 mm 0 W/m 6,4 C 8,3 C 0,0 km/h (0 Bft) 98 %
02.04.2017 05:20 8,3 C 8,3 C 8,3 C 87 % 1014,1 hPa 0,0 l/m 0,0 km/h (0 Bft) N 0 0 min 0,000 mm 0 W/m 6,3 C 8,3 C 0,0 km/h (0 Bft) 97 %
02.04.2017 05:30 8,3 C 8,3 C 8,3 C 88 % 1014,4 hPa 0,0 l/m 0,0 km/h (0 Bft) N 0 0 min 0,000 mm 0 W/m 6,4 C 8,3 C 0,0 km/h (0 Bft) 97 %
02.04.2017 05:40 8,2 C 8,2 C 8,3 C 88 % 1014,3 hPa 0,0 l/m 0,0 km/h (0 Bft) N 0 0 min 0,000 mm 0 W/m 6,3 C 8,2 C 0,0 km/h (0 Bft) 98 %
02.04.2017 05:50 8,2 C 8,2 C 8,2 C 88 % 1014,3 hPa 0,0 l/m 0,0 km/h (0 Bft) SW 225 0 min 0,000 mm 0 W/m 6,3 C 8,2 C 3,2 km/h (1 Bft) 97 %
02.04.2017 06:00 8,3 C 8,2 C 8,3 C 88 % 1014,3 hPa 0,0 l/m 0,0 km/h (0 Bft) W-SW 247 0 min 0,000 mm 0 W/m 6,4 C 8,3 C 6,4 km/h (2 Bft) 98 %
02.04.2017 06:10 8,3 C 8,3 C 8,3 C 88 % 1014,5 hPa 0,0 l/m 1,6 km/h (1 Bft) W 270 0 min 0,000 mm 0 W/m 6,4 C 8,3 C 6,4 km/h (2 Bft) 98 %
02.04.2017 06:20 8,3 C 8,3 C 8,3 C 88 % 1014,7 hPa 0,0 l/m 1,6 km/h (1 Bft) W-SW 247 0 min 0,000 mm 0 W/m 6,4 C 8,3 C 6,4 km/h (2 Bft) 97 %
02.04.2017 06:30 8,3 C 8,3 C 8,3 C 87 % 1014,7 hPa 0,0 l/m 0,0 km/h (0 Bft) W 270 0 min 0,000 mm 0 W/m 6,3 C 8,3 C 4,8 km/h (1 Bft) 97 %
02.04.2017 06:40 8,3 C 8,3 C 8,3 C 87 % 1014,9 hPa 0,0 l/m 0,0 km/h (0 Bft) W 270 0 min 0,000 mm 0 W/m 6,3 C 8,3 C 3,2 km/h (1 Bft) 97 %
02.04.2017 06:50 8,3 C 8,3 C 8,3 C 88 % 1015,0 hPa 0,0 l/m 0,0 km/h (0 Bft) N 0 0 min 0,000 mm 0 W/m 6,4 C 8,3 C 0,0 km/h (0 Bft) 98 %
02.04.2017 07:00 8,2 C 8,2 C 8,3 C 88 % 1015,2 hPa 0,0 l/m 1,6 km/h (1 Bft) W 270 0 min 0,000 mm 0 W/m 6,3 C 8,2 C 6,4 km/h (2 Bft) 97 %
02.04.2017 07:10 8,3 C 8,3 C 8,3 C 88 % 1015,3 hPa 0,0 l/m 1,6 km/h (1 Bft) W 270 0 min 0,000 mm 7 W/m 6,4 C 8,3 C 6,4 km/h (2 Bft) 98 %
02.04.2017 07:20 8,3 C 8,3 C 8,3 C 88 % 1015,6 hPa 0,0 l/m 0,0 km/h (0 Bft) W 270 0 min 0,000 mm 9 W/m 6,4 C 8,3 C 1,6 km/h (1 Bft) 98 %
02.04.2017 07:30 8,3 C 8,3 C 8,3 C 89 % 1015,8 hPa 0,0 l/m 0,0 km/h (0 Bft) W 270 0 min 0,000 mm 14 W/m 6,6 C 8,3 C 1,6 km/h (1 Bft) 97 %
02.04.2017 07:40 8,3 C 8,3 C 8,3 C 89 % 1016,1 hPa 0,0 l/m 0,0 km/h (0 Bft) N 0 0 min 0,000 mm 23 W/m 6,6 C 8,3 C 0,0 km/h (0 Bft) 98 %
02.04.2017 07:50 8,3 C 8,3 C 8,3 C 89 % 1016,4 hPa 0,2 l/m 1,6 km/h (1 Bft) SW 225 0 min 0,000 mm 16 W/m 6,6 C 8,3 C 6,4 km/h (2 Bft) 97 %
02.04.2017 08:00 8,3 C 8,3 C 8,3 C 89 % 1016,5 hPa 0,0 l/m 0,0 km/h (0 Bft) SW 225 0 min 0,000 mm 7 W/m 6,6 C 8,3 C 1,6 km/h (1 Bft) 98 %
02.04.2017 08:10 8,3 C 8,2 C 8,3 C 90 % 1016,4 hPa 0,4 l/m 0,0 km/h (0 Bft) SW 225 0 min 0,000 mm 0 W/m 6,8 C 8,3 C 3,2 km/h (1 Bft) 97 %
02.04.2017 08:20 8,2 C 8,2 C 8,3 C 90 % 1016,4 hPa 0,8 l/m 1,6 km/h (1 Bft) N-NW 337 0 min 0,000 mm 7 W/m 6,7 C 8,2 C 4,8 km/h (1 Bft) 98 %
02.04.2017 08:30 8,1 C 8,1 C 8,2 C 90 % 1015,9 hPa 0,8 l/m 1,6 km/h (1 Bft) N-NW 337 0 min 0,000 mm 16 W/m 6,6 C 8,1 C 4,8 km/h (1 Bft) 98 %
02.04.2017 08:40 8,1 C 8,1 C 8,1 C 90 % 1015,8 hPa 0,4 l/m 3,2 km/h (1 Bft) N 360 0 min 0,000 mm 39 W/m 6,6 C 8,1 C 11,3 km/h (2 Bft) 98 %
02.04.2017 08:50 8,1 C 8,1 C 8,1 C 90 % 1016,2 hPa 0,0 l/m 3,2 km/h (1 Bft) N-NW 337 0 min 0,000 mm 84 W/m 6,6 C 8,1 C 9,7 km/h (2 Bft) 97 %
02.04.2017 09:00 8,1 C 8,1 C 8,1 C 90 % 1016,6 hPa 0,0 l/m 1,6 km/h (1 Bft) NW 315 0 min 0,025 mm 144 W/m 6,6 C 8,1 C 8,0 km/h (2 Bft) 98 %
02.04.2017 09:10 8,4 C 8,1 C 8,4 C 91 % 1016,9 hPa 0,0 l/m 0,0 km/h (0 Bft) NW 315 10 min 0,000 mm 176 W/m 7,0 C 8,4 C 4,8 km/h (1 Bft) 99 %
02.04.2017 09:20 8,5 C 8,4 C 8,5 C 91 % 1017,0 hPa 0,0 l/m 1,6 km/h (1 Bft) S-SO 157 10 min 0,000 mm 174 W/m 7,1 C 8,5 C 8,0 km/h (2 Bft) 98 %
02.04.2017 09:30 8,7 C 8,5 C 8,7 C 91 % 1017,1 hPa 0,0 l/m 0,0 km/h (0 Bft) S-SO 157 10 min 0,000 mm 183 W/m 7,3 C 8,7 C 4,8 km/h (1 Bft) 98 %
02.04.2017 09:40 8,8 C 8,7 C 8,8 C 91 % 1017,3 hPa 0,0 l/m 0,0 km/h (0 Bft) N 0 10 min 0,000 mm 209 W/m 7,4 C 8,8 C 0,0 km/h (0 Bft) 99 %
02.04.2017 09:50 8,9 C 8,9 C 8,9 C 91 % 1017,5 hPa 0,0 l/m 0,0 km/h (0 Bft) S-SO 157 10 min 0,000 mm 216 W/m 7,5 C 8,9 C 1,6 km/h (1 Bft) 100 %
02.04.2017 10:00 9,0 C 8,9 C 9,1 C 90 % 1017,5 hPa 0,0 l/m 0,0 km/h (0 Bft) N 0 10 min 0,076 mm 178 W/m 7,4 C 9,0 C 0,0 km/h (0 Bft) 99 %
02.04.2017 10:10 9,0 C 8,9 C 9,0 C 90 % 1017,6 hPa 0,0 l/m 0,0 km/h (0 Bft) N 0 10 min 0,000 mm 174 W/m 7,4 C 9,0 C 0,0 km/h (0 Bft) 99 %
02.04.2017 10:20 9,3 C 9,0 C 9,3 C 91 % 1017,6 hPa 0,0 l/m 0,0 km/h (0 Bft) S-SO 157 10 min 0,000 mm 169 W/m 7,9 C 9,3 C 1,6 km/h (1 Bft) 100 %
02.04.2017 10:30 9,4 C 9,3 C 9,4 C 91 % 1017,8 hPa 0,0 l/m 0,0 km/h (0 Bft) N 0 10 min 0,000 mm 193 W/m 8,0 C 9,4 C 0,0 km/h (0 Bft) 99 %
02.04.2017 10:40 9,7 C 9,4 C 9,7 C 91 % 1017,7 hPa 0,0 l/m 0,0 km/h (0 Bft) N 0 10 min 0,000 mm 316 W/m 8,3 C 9,7 C 0,0 km/h (0 Bft) 99 %
02.04.2017 10:50 10,0 C 9,7 C 10,0 C 91 % 1017,8 hPa 0,0 l/m 0,0 km/h (0 Bft) N 0 10 min 0,000 mm 243 W/m 8,6 C 10,0 C 0,0 km/h (0 Bft) 99 %
02.04.2017 11:00 10,3 C 10,0 C 10,3 C 94 % 1017,9 hPa 0,0 l/m 0,0 km/h (0 Bft) N 0 10 min 0,076 mm 174 W/m 9,4 C 10,3 C 0,0 km/h (0 Bft) 99 %
02.04.2017 11:10 10,4 C 10,3 C 10,4 C 90 % 1017,9 hPa 0,0 l/m 0,0 km/h (0 Bft) N 0 10 min 0,000 mm 214 W/m 8,8 C 10,4 C 0,0 km/h (0 Bft) 100 %
02.04.2017 11:20 10,7 C 10,4 C 10,7 C 91 % 1017,8 hPa 0,0 l/m 0,0 km/h (0 Bft) N 0 10 min 0,000 mm 236 W/m 9,3 C 10,7 C 0,0 km/h (0 Bft) 99 %
02.04.2017 11:30 10,9 C 10,7 C 10,9 C 90 % 1017,9 hPa 0,0 l/m 0,0 km/h (0 Bft) N 0 10 min 0,000 mm 213 W/m 9,3 C 10,9 C 0,0 km/h (0 Bft) 100 %
02.04.2017 11:40 11,0 C 10,9 C 11,0 C 90 % 1018,0 hPa 0,0 l/m 0,0 km/h (0 Bft) W-NW 292 0 min 0,000 mm 146 W/m 9,4 C 11,0 C 4,8 km/h (1 Bft) 100 %
02.04.2017 11:50 11,0 C 10,9 C 11,0 C 90 % 1017,9 hPa 0,0 l/m 0,0 km/h (0 Bft) N 0 0 min 0,000 mm 118 W/m 9,4 C 11,0 C 0,0 km/h (0 Bft) 100 %
02.04.2017 12:00 11,2 C 10,9 C 11,2 C 90 % 1017,9 hPa 0,0 l/m 0,0 km/h (0 Bft) W-NW 292 0 min 0,076 mm 120 W/m 9,6 C 11,2 C 3,2 km/h (1 Bft) 100 %
02.04.2017 12:10 11,1 C 11,1 C 11,2 C 89 % 1018,0 hPa 0,0 l/m 0,0 km/h (0 Bft) N 0 10 min 0,000 mm 162 W/m 9,4 C 11,1 C 0,0 km/h (0 Bft) 100 %
02.04.2017 12:20 11,3 C 11,1 C 11,3 C 90 % 1017,9 hPa 0,0 l/m 0,0 km/h (0 Bft) N 0 10 min 0,000 mm 325 W/m 9,7 C 11,3 C 0,0 km/h (0 Bft) 100 %
02.04.2017 12:30 12,0 C 11,3 C 12,0 C 90 % 1017,8 hPa 0,0 l/m 1,6 km/h (1 Bft) W-NW 292 10 min 0,000 mm 872 W/m 10,4 C 12,0 C 6,4 km/h (2 Bft) 100 %
02.04.2017 12:40 13,2 C 12,0 C 13,2 C 89 % 1017,8 hPa 0,0 l/m 6,4 km/h (2 Bft) NW 315 10 min 0,000 mm 860 W/m 11,4 C 13,2 C 16,1 km/h (3 Bft) 100 %
02.04.2017 12:50 13,7 C 13,2 C 13,7 C 85 % 1017,9 hPa 0,0 l/m 4,8 km/h (1 Bft) N-NW 337 10 min 0,000 mm 478 W/m 11,2 C 13,7 C 16,1 km/h (3 Bft) 100 %
02.04.2017 13:00 13,9 C 13,7 C 13,9 C 85 % 1017,9 hPa 0,0 l/m 3,2 km/h (1 Bft) NW 315 10 min 0,229 mm 564 W/m 11,4 C 13,9 C 11,3 km/h (2 Bft) 100 %
02.04.2017 13:10 14,1 C 13,9 C 14,1 C 83 % 1017,8 hPa 0,0 l/m 3,2 km/h (1 Bft) N 360 10 min 0,000 mm 798 W/m 11,3 C 14,1 C 8,0 km/h (2 Bft) 100 %
02.04.2017 13:20 14,8 C 14,1 C 14,8 C 85 % 1017,6 hPa 0,0 l/m 3,2 km/h (1 Bft) N-NW 337 10 min 0,000 mm 800 W/m 12,3 C 14,8 C 9,7 km/h (2 Bft) 100 %
02.04.2017 13:40 15,3 C 14,1 C 15,3 C 81 % 1017,6 hPa 0,0 l/m 8,4 km/h (2 Bft) NW 318 20 min 0,000 mm 817 W/m 12,1 C 14,2 C 17,7 km/h (3 Bft) 97 %
02.04.2017 13:50 15,1 C 15,1 C 15,3 C 78 % 1017,6 hPa 0,0 l/m 10,3 km/h (2 Bft) NW 319 10 min 0,000 mm 281 W/m 11,3 C 13,1 C 19,3 km/h (3 Bft) 98 %
02.04.2017 14:00 15,3 C 15,1 C 15,3 C 78 % 1017,6 hPa 0,0 l/m 8,3 km/h (2 Bft) NW 314 10 min 0,282 mm 742 W/m 11,5 C 14,3 C 19,3 km/h (3 Bft) 97 %
02.04.2017 14:10 15,7 C 15,3 C 15,7 C 76 % 1017,5 hPa 0,0 l/m 6,2 km/h (2 Bft) NW 320 10 min 0,000 mm 693 W/m 11,5 C 15,7 C 19,3 km/h (3 Bft) 97 %
02.04.2017 14:20 15,9 C 15,7 C 15,9 C 76 % 1017,4 hPa 0,0 l/m 3,9 km/h (1 Bft) N-NW 336 10 min 0,000 mm 663 W/m 11,7 C 15,9 C 11,3 km/h (2 Bft) 98 %
02.04.2017 14:30 16,1 C 15,9 C 16,1 C 75 % 1017,5 hPa 0,0 l/m 3,7 km/h (1 Bft) N-NW 340 10 min 0,000 mm 679 W/m 11,7 C 16,1 C 9,7 km/h (2 Bft) 97 %
02.04.2017 14:40 16,4 C 16,1 C 16,4 C 72 % 1017,5 hPa 0,0 l/m 6,3 km/h (2 Bft) NW 311 10 min 0,000 mm 675 W/m 11,3 C 16,4 C 14,5 km/h (3 Bft) 97 %
02.04.2017 14:50 16,6 C 16,4 C 16,6 C 72 % 1017,5 hPa 0,0 l/m 1,0 km/h (0 Bft) N-NW 338 10 min 0,000 mm 673 W/m 11,5 C 16,6 C 6,4 km/h (2 Bft) 97 %
02.04.2017 15:00 16,8 C 16,6 C 16,8 C 70 % 1017,5 hPa 0,0 l/m 6,7 km/h (2 Bft) NW 313 10 min 0,355 mm 661 W/m 11,3 C 16,7 C 14,5 km/h (3 Bft) 98 %
02.04.2017 15:10 17,1 C 16,8 C 17,1 C 69 % 1017,5 hPa 0,0 l/m 2,1 km/h (1 Bft) N 351 10 min 0,000 mm 633 W/m 11,4 C 17,1 C 11,3 km/h (2 Bft) 97 %
02.04.2017 15:20 17,4 C 17,1 C 17,4 C 68 % 1017,6 hPa 0,0 l/m 5,4 km/h (1 Bft) NW 314 10 min 0,000 mm 512 W/m 11,4 C 17,4 C 16,1 km/h (3 Bft) 97 %
02.04.2017 15:30 17,6 C 17,4 C 17,6 C 65 % 1017,6 hPa 0,0 l/m 3,2 km/h (1 Bft) NW 306 10 min 0,000 mm 290 W/m 10,9 C 17,6 C 11,3 km/h (2 Bft) 97 %
02.04.2017 15:40 17,4 C 17,4 C 17,6 C 65 % 1017,6 hPa 0,0 l/m 5,7 km/h (1 Bft) NW 309 10 min 0,000 mm 276 W/m 10,8 C 17,4 C 17,7 km/h (3 Bft) 97 %
02.04.2017 15:50 17,2 C 17,2 C 17,4 C 66 % 1017,6 hPa 0,0 l/m 0,4 km/h (0 Bft) NO 34 10 min 0,000 mm 262 W/m 10,8 C 17,2 C 4,8 km/h (1 Bft) 98 %
02.04.2017 16:00 16,9 C 16,9 C 17,2 C 64 % 1017,7 hPa 0,0 l/m 0,3 km/h (0 Bft) N-NW 348 10 min 0,229 mm 209 W/m 10,0 C 16,9 C 6,4 km/h (2 Bft) 97 %
02.04.2017 16:10 16,8 C 16,7 C 16,9 C 69 % 1017,7 hPa 0,0 l/m 0,2 km/h (0 Bft) N 360 10 min 0,000 mm 163 W/m 11,1 C 16,8 C 8,0 km/h (2 Bft) 97 %
02.04.2017 16:20 17,1 C 16,8 C 17,1 C 66 % 1017,5 hPa 0,0 l/m 3,2 km/h (1 Bft) NW 320 0 min 0,000 mm 127 W/m 10,7 C 17,1 C 14,5 km/h (3 Bft) 97 %
02.04.2017 16:30 17,3 C 17,1 C 17,3 C 66 % 1017,5 hPa 0,0 l/m 0,0 km/h (0 Bft) N 11 0 min 0,000 mm 116 W/m 10,9 C 17,3 C 1,6 km/h (1 Bft) 97 %
02.04.2017 16:40 17,3 C 17,3 C 17,3 C 64 % 1017,5 hPa 0,0 l/m 0,8 km/h (0 Bft) N-NO 14 0 min 0,000 mm 111 W/m 10,4 C 17,3 C 11,3 km/h (2 Bft) 97 %
02.04.2017 16:50 17,2 C 17,2 C 17,3 C 67 % 1017,6 hPa 0,0 l/m 0,6 km/h (0 Bft) N-NW 334 0 min 0,000 mm 102 W/m 11,0 C 17,2 C 8,0 km/h (2 Bft) 97 %
02.04.2017 17:00 17,2 C 17,1 C 17,2 C 63 % 1017,7 hPa 0,0 l/m 0,6 km/h (0 Bft) N-NO 25 0 min 0,076 mm 97 W/m 10,1 C 17,2 C 6,4 km/h (2 Bft) 97 %
02.04.2017 17:10 16,9 C 16,9 C 17,2 C 64 % 1017,9 hPa 0,0 l/m 2,1 km/h (1 Bft) N-NW 339 0 min 0,000 mm 135 W/m 10,0 C 16,9 C 9,7 km/h (2 Bft) 97 %
02.04.2017 17:20 16,8 C 16,8 C 16,9 C 65 % 1017,9 hPa 0,0 l/m 0,0 km/h (0 Bft) N 350 10 min 0,000 mm 155 W/m 10,2 C 16,8 C 1,6 km/h (1 Bft) 98 %
02.04.2017 17:30 16,9 C 16,8 C 16,9 C 67 % 1017,9 hPa 0,0 l/m 0,3 km/h (0 Bft) N-NW 329 0 min 0,000 mm 116 W/m 10,7 C 16,9 C 4,8 km/h (1 Bft) 97 %
02.04.2017 17:40 16,9 C 16,9 C 16,9 C 65 % 1018,0 hPa 0,0 l/m 0,6 km/h (0 Bft) N-NO 17 0 min 0,000 mm 107 W/m 10,3 C 16,9 C 8,0 km/h (2 Bft) 98 %
02.04.2017 17:50 16,8 C 16,8 C 16,9 C 67 % 1018,0 hPa 0,0 l/m 3,7 km/h (1 Bft) N-NW 335 0 min 0,000 mm 83 W/m 10,6 C 16,8 C 16,1 km/h (3 Bft) 97 %
02.04.2017 18:00 16,7 C 16,7 C 16,9 C 66 % 1017,9 hPa 0,0 l/m 2,2 km/h (1 Bft) N-NW 348 0 min 0,076 mm 76 W/m 10,3 C 16,7 C 16,1 km/h (3 Bft) 97 %
02.04.2017 18:10 16,6 C 16,6 C 16,7 C 66 % 1018,0 hPa 0,0 l/m 0,4 km/h (0 Bft) N-NO 30 0 min 0,000 mm 70 W/m 10,2 C 16,6 C 6,4 km/h (2 Bft) 97 %
02.04.2017 18:20 16,4 C 16,4 C 16,6 C 66 % 1018,1 hPa 0,0 l/m 1,0 km/h (0 Bft) N-NO 26 0 min 0,000 mm 67 W/m 10,0 C 16,4 C 9,7 km/h (2 Bft) 97 %
02.04.2017 18:30 16,2 C 16,2 C 16,4 C 68 % 1018,2 hPa 0,0 l/m 1,2 km/h (1 Bft) N 355 0 min 0,000 mm 58 W/m 10,3 C 16,2 C 9,7 km/h (2 Bft) 98 %
02.04.2017 18:40 16,0 C 16,0 C 16,2 C 68 % 1018,4 hPa 0,0 l/m 0,0 km/h (0 Bft) N-NW 327 0 min 0,000 mm 51 W/m 10,1 C 16,0 C 1,6 km/h (1 Bft) 97 %
02.04.2017 18:50 15,8 C 15,8 C 16,0 C 68 % 1018,4 hPa 0,0 l/m 0,6 km/h (0 Bft) N 349 0 min 0,000 mm 46 W/m 9,9 C 15,8 C 9,7 km/h (2 Bft) 98 %
02.04.2017 19:00 15,6 C 15,6 C 15,8 C 69 % 1018,6 hPa 0,0 l/m 0,4 km/h (0 Bft) N-NW 346 0 min 0,051 mm 39 W/m 9,9 C 15,6 C 8,0 km/h (2 Bft) 97 %
02.04.2017 19:10 15,3 C 15,3 C 15,6 C 68 % 1018,7 hPa 0,0 l/m 2,5 km/h (1 Bft) N-NW 346 0 min 0,000 mm 28 W/m 9,4 C 15,3 C 8,0 km/h (2 Bft) 97 %
02.04.2017 19:20 15,1 C 15,1 C 15,3 C 68 % 1018,8 hPa 0,0 l/m 0,9 km/h (0 Bft) N 355 0 min 0,000 mm 18 W/m 9,2 C 15,1 C 9,7 km/h (2 Bft) 98 %
02.04.2017 19:30 14,7 C 14,7 C 15,1 C 70 % 1018,8 hPa 0,0 l/m 0,0 km/h (0 Bft) N-NW 347 0 min 0,000 mm 11 W/m 9,3 C 14,7 C 1,6 km/h (1 Bft) 97 %
02.04.2017 19:40 14,4 C 14,4 C 14,7 C 71 % 1018,9 hPa 0,0 l/m 0,1 km/h (0 Bft) N-NW 346 0 min 0,000 mm 11 W/m 9,2 C 14,4 C 4,8 km/h (1 Bft) 97 %
02.04.2017 19:50 14,1 C 14,1 C 14,4 C 72 % 1018,9 hPa 0,0 l/m 0,0 km/h (0 Bft) N-NW 346 0 min 0,000 mm 5 W/m 9,1 C 14,1 C 1,6 km/h (1 Bft) 97 %
02.04.2017 20:00 13,7 C 13,7 C 14,1 C 73 % 1019,0 hPa 0,0 l/m 0,0 km/h (0 Bft) N-NW 346 0 min 0,025 mm 0 W/m 8,9 C 13,7 C 0,0 km/h (0 Bft) 97 %
02.04.2017 20:10 13,4 C 13,4 C 13,7 C 74 % 1019,1 hPa 0,0 l/m 0,0 km/h (0 Bft) N-NW 346 0 min 0,000 mm 0 W/m 8,9 C 13,4 C 0,0 km/h (0 Bft) 97 %
02.04.2017 20:20 13,1 C 13,1 C 13,4 C 75 % 1019,3 hPa 0,0 l/m 0,0 km/h (0 Bft) N-NW 346 0 min 0,000 mm 0 W/m 8,8 C 13,1 C 0,0 km/h (0 Bft) 97 %
02.04.2017 20:30 12,9 C 12,9 C 13,1 C 76 % 1019,4 hPa 0,0 l/m 0,1 km/h (0 Bft) N-NW 346 0 min 0,000 mm 0 W/m 8,8 C 12,9 C 1,6 km/h (1 Bft) 98 %
02.04.2017 20:40 12,8 C 12,8 C 12,9 C 77 % 1019,4 hPa 0,0 l/m 0,0 km/h (0 Bft) N-NW 346 0 min 0,000 mm 0 W/m 8,9 C 12,8 C 1,6 km/h (1 Bft) 97 %
02.04.2017 20:50 12,7 C 12,7 C 12,8 C 77 % 1019,8 hPa 0,0 l/m 1,1 km/h (1 Bft) N-NW 346 0 min 0,000 mm 0 W/m 8,8 C 12,7 C 4,8 km/h (1 Bft) 98 %
02.04.2017 21:00 12,6 C 12,6 C 12,7 C 78 % 1019,9 hPa 0,0 l/m 2,0 km/h (1 Bft) N-NW 345 0 min 0,000 mm 0 W/m 8,9 C 12,6 C 3,2 km/h (1 Bft) 97 %
02.04.2017 21:10 12,4 C 12,4 C 12,6 C 78 % 1019,9 hPa 0,0 l/m 1,6 km/h (1 Bft) N-NW 337 0 min 0,000 mm 0 W/m 8,7 C 12,4 C 3,2 km/h (1 Bft) 99 %
02.04.2017 21:20 12,3 C 12,3 C 12,4 C 79 % 1020,1 hPa 0,0 l/m 0,0 km/h (0 Bft) N 0 0 min 0,000 mm 0 W/m 8,8 C 12,3 C 0,0 km/h (0 Bft) 100 %
02.04.2017 21:30 12,1 C 12,1 C 12,3 C 79 % 1020,3 hPa 0,0 l/m 0,0 km/h (0 Bft) N 0 0 min 0,000 mm 0 W/m 8,6 C 12,1 C 0,0 km/h (0 Bft) 90 %
02.04.2017 21:40 11,8 C 11,8 C 12,1 C 80 % 1020,3 hPa 0,0 l/m 0,0 km/h (0 Bft) N-NW 337 0 min 0,000 mm 0 W/m 8,5 C 11,8 C 1,6 km/h (1 Bft) 100 %
02.04.2017 21:50 11,6 C 11,6 C 11,8 C 80 % 1020,6 hPa 0,0 l/m 0,0 km/h (0 Bft) N 0 0 min 0,000 mm 0 W/m 8,3 C 11,6 C 0,0 km/h (0 Bft) 100 %
02.04.2017 22:00 11,3 C 11,3 C 11,6 C 81 % 1020,6 hPa 0,0 l/m 0,0 km/h (0 Bft) N 0 0 min 0,025 mm 0 W/m 8,2 C 11,3 C 0,0 km/h (0 Bft) 99 %
02.04.2017 22:10 11,0 C 11,0 C 11,3 C 82 % 1020,7 hPa 0,0 l/m 0,0 km/h (0 Bft) N 0 0 min 0,000 mm 0 W/m 8,0 C 11,0 C 0,0 km/h (0 Bft) 100 %
02.04.2017 22:20 10,7 C 10,7 C 11,0 C 83 % 1020,9 hPa 0,0 l/m 0,0 km/h (0 Bft) N 0 0 min 0,000 mm 0 W/m 7,9 C 10,7 C 0,0 km/h (0 Bft) 100 %
02.04.2017 22:30 10,5 C 10,5 C 10,7 C 84 % 1020,8 hPa 0,0 l/m 0,0 km/h (0 Bft) N 0 0 min 0,000 mm 0 W/m 7,9 C 10,5 C 0,0 km/h (0 Bft) 100 %
02.04.2017 22:40 10,3 C 10,3 C 10,7 C 84 % 1021,1 hPa 0,0 l/m 0,0 km/h (0 Bft) N-NW 346 0 min 0,001 mm 0 W/m 7,7 C 10,3 C 0,0 km/h (0 Bft) 100 %
02.04.2017 22:50 10,1 C 10,1 C 10,3 C 85 % 1021,2 hPa 0,0 l/m 0,0 km/h (0 Bft) N-NW 346 0 min 0,000 mm 0 W/m 7,7 C 10,1 C 0,0 km/h (0 Bft) 100 %
02.04.2017 23:00 10,0 C 10,0 C 10,1 C 85 % 1021,3 hPa 0,0 l/m 0,0 km/h (0 Bft) N-NW 346 0 min 0,000 mm 0 W/m 7,6 C 10,0 C 0,0 km/h (0 Bft) 100 %
02.04.2017 23:10 9,9 C 9,9 C 10,0 C 86 % 1021,3 hPa 0,0 l/m 0,0 km/h (0 Bft) N-NW 346 0 min 0,000 mm 0 W/m 7,7 C 9,9 C 0,0 km/h (0 Bft) 100 %
02.04.2017 23:20 9,8 C 9,8 C 9,9 C 86 % 1021,4 hPa 0,0 l/m 0,0 km/h (0 Bft) N 0 0 min 0,000 mm 0 W/m 7,6 C 9,8 C 0,0 km/h (0 Bft) 100 %
02.04.2017 23:30 9,7 C 9,7 C 9,8 C 86 % 1021,4 hPa 0,0 l/m 0,0 km/h (0 Bft) N 0 0 min 0,000 mm 0 W/m 7,5 C 9,7 C 0,0 km/h (0 Bft) 100 %
02.04.2017 23:40 9,6 C 9,6 C 9,7 C 87 % 1021,5 hPa 0,0 l/m 0,0 km/h (0 Bft) N 0 0 min 0,000 mm 0 W/m 7,5 C 9,6 C 0,0 km/h (0 Bft) 100 %
02.04.2017 23:50 9,4 C 9,4 C 9,5 C 88 % 1021,6 hPa 0,0 l/m 0,0 km/h (0 Bft) N 0 0 min 0,000 mm 0 W/m 7,5 C 9,4 C 0,0 km/h (0 Bft) 100 %
_ Min-Zeit 08:30 08:30 08:40 17:00 00:00 - 00:00 - - - - - 04:10 08:30 03:00 21:30
Minimum _ 8,1 C 8,1 C 8,1 C 63 % 1012,9 hPa - 0,0 km/h (0 Bft) - - - - - 6,2 C 8,1 C 0,0 km/h (0 Bft) 90 %
_ Max-Zeit 15:30 15:30 15:30 11:00 23:50 08:20 13:50 - - 13:40 15:00 12:30 13:20 15:30 13:50 10:20
Maximum _ 17,6 C 17,4 C 17,6 C 94 % 1021,6 hPa 0,8 l/m 10,3 km/h
NW (2 Bft)
- - 20 min 0,355 mm 872 W/m 12,3 C 17,6 C 19,3 km/h
NW (3 Bft)
100 %
Durchschnitt _ 11,7 C 11,6 C 11,8 C 81 % 1016,9 hPa #2,6 l/m 1,3 km/h (1 Bft) N-NW - #6:50 h #1,702 mm 247 W/m 8,4 C 11,7 C 5,1 km/h (1 Bft) 98 %
PRIVATE WETTERSTATION BILLIGHEIM-ALLFELD - www.neckar-odenwald-wetter.de - Holger Sonntag